sensor_id;sensor_type;location;lat;lon;timestamp;P1;durP1;ratioP1;P2;durP2;ratioP2
21110;SDS011;10713;51.912;4.494;2023-03-14T00:02:21;14.40;;;2.75;;
21110;SDS011;10713;51.912;4.494;2023-03-14T00:04:47;12.52;;;2.28;;
21110;SDS011;10713;51.912;4.494;2023-03-14T00:07:13;16.95;;;2.38;;
21110;SDS011;10713;51.912;4.494;2023-03-14T00:09:38;8.15;;;2.10;;
21110;SDS011;10713;51.912;4.494;2023-03-14T00:12:04;10.20;;;2.15;;
21110;SDS011;10713;51.912;4.494;2023-03-14T00:14:31;10.73;;;2.30;;
21110;SDS011;10713;51.912;4.494;2023-03-14T00:16:57;10.10;;;2.38;;
21110;SDS011;10713;51.912;4.494;2023-03-14T00:19:22;10.93;;;2.50;;
21110;SDS011;10713;51.912;4.494;2023-03-14T00:21:48;7.43;;;2.00;;
21110;SDS011;10713;51.912;4.494;2023-03-14T00:24:13;14.00;;;2.63;;
21110;SDS011;10713;51.912;4.494;2023-03-14T00:26:38;11.50;;;2.28;;
21110;SDS011;10713;51.912;4.494;2023-03-14T00:29:04;11.68;;;2.30;;
21110;SDS011;10713;51.912;4.494;2023-03-14T00:31:29;13.38;;;2.40;;
21110;SDS011;10713;51.912;4.494;2023-03-14T00:33:54;9.85;;;2.45;;
21110;SDS011;10713;51.912;4.494;2023-03-14T00:36:20;14.43;;;3.33;;
21110;SDS011;10713;51.912;4.494;2023-03-14T00:38:47;13.27;;;2.78;;
21110;SDS011;10713;51.912;4.494;2023-03-14T00:41:17;15.82;;;3.15;;
21110;SDS011;10713;51.912;4.494;2023-03-14T00:43:44;12.77;;;3.03;;
21110;SDS011;10713;51.912;4.494;2023-03-14T00:46:10;16.48;;;2.45;;
21110;SDS011;10713;51.912;4.494;2023-03-14T00:48:37;18.33;;;2.70;;
21110;SDS011;10713;51.912;4.494;2023-03-14T00:51:04;11.05;;;2.30;;
21110;SDS011;10713;51.912;4.494;2023-03-14T00:53:30;8.90;;;2.03;;
21110;SDS011;10713;51.912;4.494;2023-03-14T00:55:55;13.68;;;2.30;;
21110;SDS011;10713;51.912;4.494;2023-03-14T00:58:21;9.55;;;2.72;;
21110;SDS011;10713;51.912;4.494;2023-03-14T01:00:46;11.38;;;2.15;;
21110;SDS011;10713;51.912;4.494;2023-03-14T01:03:12;10.63;;;2.60;;
21110;SDS011;10713;51.912;4.494;2023-03-14T01:05:39;11.85;;;2.28;;
21110;SDS011;10713;51.912;4.494;2023-03-14T01:08:05;15.27;;;2.92;;
21110;SDS011;10713;51.912;4.494;2023-03-14T01:10:32;9.60;;;2.58;;
21110;SDS011;10713;51.912;4.494;2023-03-14T01:12:57;14.88;;;2.72;;
21110;SDS011;10713;51.912;4.494;2023-03-14T01:15:23;14.18;;;2.47;;
21110;SDS011;10713;51.912;4.494;2023-03-14T01:17:48;12.00;;;2.55;;
21110;SDS011;10713;51.912;4.494;2023-03-14T01:20:14;16.17;;;1.88;;
21110;SDS011;10713;51.912;4.494;2023-03-14T01:22:41;9.68;;;2.35;;
21110;SDS011;10713;51.912;4.494;2023-03-14T01:25:15;12.82;;;2.55;;
21110;SDS011;10713;51.912;4.494;2023-03-14T01:27:41;11.55;;;2.47;;
21110;SDS011;10713;51.912;4.494;2023-03-14T01:30:07;13.57;;;2.40;;
21110;SDS011;10713;51.912;4.494;2023-03-14T01:32:34;9.40;;;2.58;;
21110;SDS011;10713;51.912;4.494;2023-03-14T01:34:59;10.32;;;1.80;;
21110;SDS011;10713;51.912;4.494;2023-03-14T01:37:25;11.77;;;2.22;;
21110;SDS011;10713;51.912;4.494;2023-03-14T01:39:50;11.68;;;2.00;;
21110;SDS011;10713;51.912;4.494;2023-03-14T01:42:16;10.27;;;2.33;;
21110;SDS011;10713;51.912;4.494;2023-03-14T01:44:57;10.52;;;2.20;;
21110;SDS011;10713;51.912;4.494;2023-03-14T01:47:25;7.63;;;1.67;;
21110;SDS011;10713;51.912;4.494;2023-03-14T01:49:54;12.63;;;2.22;;
21110;SDS011;10713;51.912;4.494;2023-03-14T01:52:28;12.82;;;2.20;;
21110;SDS011;10713;51.912;4.494;2023-03-14T01:54:59;14.20;;;2.28;;
21110;SDS011;10713;51.912;4.494;2023-03-14T01:58:16;11.70;;;2.17;;
21110;SDS011;10713;51.912;4.494;2023-03-14T02:00:24;8.30;;;1.85;;
21110;SDS011;10713;51.912;4.494;2023-03-14T02:02:51;10.32;;;2.08;;
21110;SDS011;10713;51.912;4.494;2023-03-14T02:05:25;7.78;;;1.80;;
21110;SDS011;10713;51.912;4.494;2023-03-14T02:07:56;8.93;;;1.80;;
21110;SDS011;10713;51.912;4.494;2023-03-14T02:10:25;14.32;;;2.03;;
21110;SDS011;10713;51.912;4.494;2023-03-14T02:12:54;8.98;;;1.65;;
21110;SDS011;10713;51.912;4.494;2023-03-14T02:15:22;9.40;;;1.73;;
21110;SDS011;10713;51.912;4.494;2023-03-14T02:17:47;5.57;;;1.58;;
21110;SDS011;10713;51.912;4.494;2023-03-14T02:22:42;6.45;;;1.80;;
21110;SDS011;10713;51.912;4.494;2023-03-14T02:25:17;5.25;;;1.88;;
21110;SDS011;10713;51.912;4.494;2023-03-14T02:27:49;7.38;;;1.90;;
21110;SDS011;10713;51.912;4.494;2023-03-14T02:30:18;8.27;;;1.70;;
21110;SDS011;10713;51.912;4.494;2023-03-14T02:32:49;10.45;;;2.90;;
21110;SDS011;10713;51.912;4.494;2023-03-14T02:35:24;6.07;;;1.58;;
21110;SDS011;10713;51.912;4.494;2023-03-14T02:37:57;3.75;;;1.75;;
21110;SDS011;10713;51.912;4.494;2023-03-14T02:40:29;8.65;;;2.60;;
21110;SDS011;10713;51.912;4.494;2023-03-14T02:42:55;10.18;;;2.00;;
21110;SDS011;10713;51.912;4.494;2023-03-14T02:47:56;9.05;;;1.95;;
21110;SDS011;10713;51.912;4.494;2023-03-14T02:50:28;13.35;;;2.60;;
21110;SDS011;10713;51.912;4.494;2023-03-14T02:52:55;9.50;;;2.05;;
21110;SDS011;10713;51.912;4.494;2023-03-14T02:55:21;10.48;;;2.00;;
21110;SDS011;10713;51.912;4.494;2023-03-14T02:57:47;9.85;;;2.25;;
21110;SDS011;10713;51.912;4.494;2023-03-14T03:00:13;12.10;;;2.45;;
21110;SDS011;10713;51.912;4.494;2023-03-14T03:02:38;8.35;;;1.98;;
21110;SDS011;10713;51.912;4.494;2023-03-14T03:05:04;9.18;;;1.95;;
21110;SDS011;10713;51.912;4.494;2023-03-14T03:07:30;7.30;;;1.98;;
21110;SDS011;10713;51.912;4.494;2023-03-14T03:09:55;10.55;;;2.10;;
21110;SDS011;10713;51.912;4.494;2023-03-14T03:12:21;9.32;;;2.22;;
21110;SDS011;10713;51.912;4.494;2023-03-14T03:14:46;13.38;;;2.83;;
21110;SDS011;10713;51.912;4.494;2023-03-14T03:17:11;14.23;;;2.50;;
21110;SDS011;10713;51.912;4.494;2023-03-14T03:19:37;11.40;;;2.38;;
21110;SDS011;10713;51.912;4.494;2023-03-14T03:22:02;14.48;;;2.50;;
21110;SDS011;10713;51.912;4.494;2023-03-14T03:24:28;10.82;;;2.40;;
21110;SDS011;10713;51.912;4.494;2023-03-14T03:26:53;13.80;;;2.83;;
21110;SDS011;10713;51.912;4.494;2023-03-14T03:29:18;8.38;;;2.15;;
21110;SDS011;10713;51.912;4.494;2023-03-14T03:31:44;12.25;;;2.60;;
21110;SDS011;10713;51.912;4.494;2023-03-14T03:34:13;9.30;;;2.47;;
21110;SDS011;10713;51.912;4.494;2023-03-14T03:36:39;11.98;;;2.40;;
21110;SDS011;10713;51.912;4.494;2023-03-14T03:39:04;9.05;;;2.10;;
21110;SDS011;10713;51.912;4.494;2023-03-14T03:41:30;8.40;;;2.20;;
21110;SDS011;10713;51.912;4.494;2023-03-14T03:43:56;10.52;;;2.25;;
21110;SDS011;10713;51.912;4.494;2023-03-14T03:46:21;9.77;;;2.47;;
21110;SDS011;10713;51.912;4.494;2023-03-14T03:48:47;11.98;;;2.28;;
21110;SDS011;10713;51.912;4.494;2023-03-14T03:51:13;10.60;;;2.20;;
21110;SDS011;10713;51.912;4.494;2023-03-14T03:53:40;12.48;;;2.92;;
21110;SDS011;10713;51.912;4.494;2023-03-14T03:56:06;6.20;;;2.00;;
21110;SDS011;10713;51.912;4.494;2023-03-14T03:58:33;14.10;;;2.47;;
21110;SDS011;10713;51.912;4.494;2023-03-14T04:00:58;8.18;;;1.67;;
21110;SDS011;10713;51.912;4.494;2023-03-14T04:03:23;17.63;;;2.78;;
21110;SDS011;10713;51.912;4.494;2023-03-14T04:05:59;7.82;;;2.15;;
21110;SDS011;10713;51.912;4.494;2023-03-14T04:08:25;6.93;;;1.67;;
21110;SDS011;10713;51.912;4.494;2023-03-14T04:10:53;10.48;;;2.20;;
21110;SDS011;10713;51.912;4.494;2023-03-14T04:13:22;7.75;;;1.83;;
21110;SDS011;10713;51.912;4.494;2023-03-14T04:15:48;11.20;;;2.13;;
21110;SDS011;10713;51.912;4.494;2023-03-14T04:18:14;9.27;;;2.28;;
21110;SDS011;10713;51.912;4.494;2023-03-14T04:20:40;7.82;;;1.90;;
21110;SDS011;10713;51.912;4.494;2023-03-14T04:23:05;8.70;;;2.05;;
21110;SDS011;10713;51.912;4.494;2023-03-14T04:25:30;8.98;;;1.95;;
21110;SDS011;10713;51.912;4.494;2023-03-14T04:27:56;8.05;;;2.50;;
21110;SDS011;10713;51.912;4.494;2023-03-14T04:30:21;11.07;;;2.03;;
21110;SDS011;10713;51.912;4.494;2023-03-14T04:32:47;7.47;;;1.92;;
21110;SDS011;10713;51.912;4.494;2023-03-14T04:35:12;6.97;;;1.98;;
21110;SDS011;10713;51.912;4.494;2023-03-14T04:37:37;9.60;;;2.03;;
21110;SDS011;10713;51.912;4.494;2023-03-14T04:40:03;6.35;;;2.10;;
21110;SDS011;10713;51.912;4.494;2023-03-14T04:42:31;6.90;;;2.25;;
21110;SDS011;10713;51.912;4.494;2023-03-14T04:44:57;7.60;;;2.17;;
21110;SDS011;10713;51.912;4.494;2023-03-14T04:47:22;5.40;;;1.80;;
21110;SDS011;10713;51.912;4.494;2023-03-14T04:49:47;9.00;;;2.20;;
21110;SDS011;10713;51.912;4.494;2023-03-14T04:52:13;10.68;;;1.90;;
21110;SDS011;10713;51.912;4.494;2023-03-14T04:54:38;10.65;;;2.33;;
21110;SDS011;10713;51.912;4.494;2023-03-14T04:57:03;7.70;;;1.92;;
21110;SDS011;10713;51.912;4.494;2023-03-14T04:59:29;5.40;;;1.65;;
21110;SDS011;10713;51.912;4.494;2023-03-14T05:01:54;9.85;;;2.28;;
21110;SDS011;10713;51.912;4.494;2023-03-14T05:04:19;4.22;;;1.65;;
21110;SDS011;10713;51.912;4.494;2023-03-14T05:06:45;6.35;;;1.73;;
21110;SDS011;10713;51.912;4.494;2023-03-14T05:09:10;3.47;;;1.60;;
21110;SDS011;10713;51.912;4.494;2023-03-14T05:11:36;6.22;;;1.77;;
21110;SDS011;10713;51.912;4.494;2023-03-14T05:14:01;6.65;;;2.28;;
21110;SDS011;10713;51.912;4.494;2023-03-14T05:16:26;5.55;;;1.98;;
21110;SDS011;10713;51.912;4.494;2023-03-14T05:18:52;9.68;;;2.08;;
21110;SDS011;10713;51.912;4.494;2023-03-14T05:21:17;7.35;;;2.10;;
21110;SDS011;10713;51.912;4.494;2023-03-14T05:23:42;5.75;;;2.20;;
21110;SDS011;10713;51.912;4.494;2023-03-14T05:26:08;9.18;;;2.80;;
21110;SDS011;10713;51.912;4.494;2023-03-14T05:28:33;5.90;;;2.42;;
21110;SDS011;10713;51.912;4.494;2023-03-14T05:30:58;9.45;;;3.25;;
21110;SDS011;10713;51.912;4.494;2023-03-14T05:33:24;6.95;;;2.90;;
21110;SDS011;10713;51.912;4.494;2023-03-14T05:35:49;5.72;;;2.78;;
21110;SDS011;10713;51.912;4.494;2023-03-14T05:38:15;12.07;;;3.17;;
21110;SDS011;10713;51.912;4.494;2023-03-14T05:40:40;8.13;;;3.38;;
21110;SDS011;10713;51.912;4.494;2023-03-14T05:43:05;4.97;;;1.70;;
21110;SDS011;10713;51.912;4.494;2023-03-14T05:45:33;3.10;;;1.50;;
21110;SDS011;10713;51.912;4.494;2023-03-14T05:47:59;3.97;;;1.15;;
21110;SDS011;10713;51.912;4.494;2023-03-14T05:50:24;5.82;;;1.42;;
21110;SDS011;10713;51.912;4.494;2023-03-14T05:52:49;6.50;;;1.25;;
21110;SDS011;10713;51.912;4.494;2023-03-14T05:55:15;5.10;;;1.48;;
21110;SDS011;10713;51.912;4.494;2023-03-14T05:57:40;5.88;;;1.52;;
21110;SDS011;10713;51.912;4.494;2023-03-14T06:00:06;6.13;;;1.38;;
21110;SDS011;10713;51.912;4.494;2023-03-14T06:02:31;5.35;;;1.33;;
21110;SDS011;10713;51.912;4.494;2023-03-14T06:04:57;11.82;;;2.20;;
21110;SDS011;10713;51.912;4.494;2023-03-14T06:07:22;11.93;;;1.75;;
21110;SDS011;10713;51.912;4.494;2023-03-14T06:09:48;11.27;;;1.90;;
21110;SDS011;10713;51.912;4.494;2023-03-14T06:12:13;8.25;;;1.85;;
21110;SDS011;10713;51.912;4.494;2023-03-14T06:14:38;5.72;;;1.42;;
21110;SDS011;10713;51.912;4.494;2023-03-14T06:17:04;9.10;;;1.75;;
21110;SDS011;10713;51.912;4.494;2023-03-14T06:19:29;5.07;;;1.23;;
21110;SDS011;10713;51.912;4.494;2023-03-14T06:21:54;5.85;;;1.42;;
21110;SDS011;10713;51.912;4.494;2023-03-14T06:24:20;7.57;;;1.52;;
21110;SDS011;10713;51.912;4.494;2023-03-14T06:26:45;2.83;;;1.20;;
21110;SDS011;10713;51.912;4.494;2023-03-14T06:29:11;5.25;;;1.40;;
21110;SDS011;10713;51.912;4.494;2023-03-14T06:31:36;8.35;;;1.60;;
21110;SDS011;10713;51.912;4.494;2023-03-14T06:34:01;4.55;;;1.40;;
21110;SDS011;10713;51.912;4.494;2023-03-14T06:36:27;5.68;;;1.33;;
21110;SDS011;10713;51.912;4.494;2023-03-14T06:38:52;6.75;;;1.48;;
21110;SDS011;10713;51.912;4.494;2023-03-14T06:41:18;6.75;;;1.52;;
21110;SDS011;10713;51.912;4.494;2023-03-14T06:43:44;3.92;;;1.63;;
21110;SDS011;10713;51.912;4.494;2023-03-14T06:46:09;3.47;;;1.38;;
21110;SDS011;10713;51.912;4.494;2023-03-14T06:48:34;5.30;;;1.27;;
21110;SDS011;10713;51.912;4.494;2023-03-14T06:51:00;4.68;;;1.27;;
21110;SDS011;10713;51.912;4.494;2023-03-14T06:53:25;7.32;;;1.55;;
21110;SDS011;10713;51.912;4.494;2023-03-14T06:55:51;3.13;;;0.98;;
21110;SDS011;10713;51.912;4.494;2023-03-14T06:58:16;10.77;;;1.40;;
21110;SDS011;10713;51.912;4.494;2023-03-14T07:00:42;9.88;;;1.40;;
21110;SDS011;10713;51.912;4.494;2023-03-14T07:03:07;4.85;;;1.48;;
21110;SDS011;10713;51.912;4.494;2023-03-14T07:05:32;6.65;;;1.42;;
21110;SDS011;10713;51.912;4.494;2023-03-14T07:07:58;9.88;;;1.50;;
21110;SDS011;10713;51.912;4.494;2023-03-14T07:10:23;7.75;;;1.98;;
21110;SDS011;10713;51.912;4.494;2023-03-14T07:12:49;6.85;;;1.83;;
21110;SDS011;10713;51.912;4.494;2023-03-14T07:15:14;13.38;;;1.70;;
21110;SDS011;10713;51.912;4.494;2023-03-14T07:17:40;8.43;;;1.55;;
21110;SDS011;10713;51.912;4.494;2023-03-14T07:20:05;12.60;;;2.22;;
21110;SDS011;10713;51.912;4.494;2023-03-14T07:22:32;16.25;;;2.95;;
21110;SDS011;10713;51.912;4.494;2023-03-14T07:24:57;15.38;;;2.05;;
21110;SDS011;10713;51.912;4.494;2023-03-14T07:27:22;11.70;;;2.30;;
21110;SDS011;10713;51.912;4.494;2023-03-14T07:29:48;5.53;;;1.45;;
21110;SDS011;10713;51.912;4.494;2023-03-14T07:32:13;7.10;;;1.35;;
21110;SDS011;10713;51.912;4.494;2023-03-14T07:34:42;7.97;;;1.50;;
21110;SDS011;10713;51.912;4.494;2023-03-14T07:37:08;5.65;;;1.50;;
21110;SDS011;10713;51.912;4.494;2023-03-14T07:39:34;8.30;;;1.80;;
21110;SDS011;10713;51.912;4.494;2023-03-14T07:42:00;5.80;;;1.30;;
21110;SDS011;10713;51.912;4.494;2023-03-14T07:44:25;11.13;;;1.50;;
21110;SDS011;10713;51.912;4.494;2023-03-14T07:46:51;8.45;;;1.80;;
21110;SDS011;10713;51.912;4.494;2023-03-14T07:49:16;15.65;;;1.95;;
21110;SDS011;10713;51.912;4.494;2023-03-14T07:51:42;7.75;;;2.03;;
21110;SDS011;10713;51.912;4.494;2023-03-14T07:54:11;8.88;;;1.75;;
21110;SDS011;10713;51.912;4.494;2023-03-14T07:56:37;11.73;;;1.80;;
21110;SDS011;10713;51.912;4.494;2023-03-14T07:59:02;7.53;;;1.35;;
21110;SDS011;10713;51.912;4.494;2023-03-14T08:01:28;7.65;;;1.27;;
21110;SDS011;10713;51.912;4.494;2023-03-14T08:03:54;9.40;;;1.50;;
21110;SDS011;10713;51.912;4.494;2023-03-14T08:06:19;10.25;;;1.70;;
21110;SDS011;10713;51.912;4.494;2023-03-14T08:08:44;5.90;;;1.35;;
21110;SDS011;10713;51.912;4.494;2023-03-14T08:11:10;8.70;;;1.80;;
21110;SDS011;10713;51.912;4.494;2023-03-14T08:13:36;8.90;;;1.58;;
21110;SDS011;10713;51.912;4.494;2023-03-14T08:16:02;7.13;;;1.35;;
21110;SDS011;10713;51.912;4.494;2023-03-14T08:18:28;5.55;;;1.60;;
21110;SDS011;10713;51.912;4.494;2023-03-14T08:20:53;15.85;;;2.30;;
21110;SDS011;10713;51.912;4.494;2023-03-14T08:23:19;14.80;;;2.03;;
21110;SDS011;10713;51.912;4.494;2023-03-14T08:25:44;8.15;;;1.45;;
21110;SDS011;10713;51.912;4.494;2023-03-14T08:28:09;5.25;;;1.00;;
21110;SDS011;10713;51.912;4.494;2023-03-14T08:30:35;12.98;;;1.70;;
21110;SDS011;10713;51.912;4.494;2023-03-14T08:33:00;10.40;;;1.48;;
21110;SDS011;10713;51.912;4.494;2023-03-14T08:35:26;5.38;;;1.10;;
21110;SDS011;10713;51.912;4.494;2023-03-14T08:37:51;5.45;;;1.25;;
21110;SDS011;10713;51.912;4.494;2023-03-14T08:40:17;9.63;;;1.55;;
21110;SDS011;10713;51.912;4.494;2023-03-14T08:42:43;10.45;;;1.33;;
21110;SDS011;10713;51.912;4.494;2023-03-14T08:45:10;13.48;;;1.65;;
21110;SDS011;10713;51.912;4.494;2023-03-14T08:47:37;6.60;;;1.38;;
21110;SDS011;10713;51.912;4.494;2023-03-14T08:50:03;6.40;;;1.60;;
21110;SDS011;10713;51.912;4.494;2023-03-14T08:52:30;4.82;;;1.20;;
21110;SDS011;10713;51.912;4.494;2023-03-14T08:54:56;3.78;;;0.90;;
21110;SDS011;10713;51.912;4.494;2023-03-14T08:57:21;5.88;;;1.20;;
21110;SDS011;10713;51.912;4.494;2023-03-14T08:59:47;7.80;;;1.10;;
21110;SDS011;10713;51.912;4.494;2023-03-14T09:02:12;7.75;;;1.55;;
21110;SDS011;10713;51.912;4.494;2023-03-14T09:04:38;3.88;;;1.27;;
21110;SDS011;10713;51.912;4.494;2023-03-14T09:07:04;10.07;;;1.83;;
21110;SDS011;10713;51.912;4.494;2023-03-14T09:09:29;4.45;;;1.50;;
21110;SDS011;10713;51.912;4.494;2023-03-14T09:11:55;7.22;;;1.20;;
21110;SDS011;10713;51.912;4.494;2023-03-14T09:14:21;5.93;;;1.58;;
21110;SDS011;10713;51.912;4.494;2023-03-14T09:16:46;11.20;;;1.67;;
21110;SDS011;10713;51.912;4.494;2023-03-14T09:19:12;12.27;;;1.73;;
21110;SDS011;10713;51.912;4.494;2023-03-14T09:21:37;11.27;;;1.98;;
21110;SDS011;10713;51.912;4.494;2023-03-14T09:24:04;7.38;;;1.70;;
21110;SDS011;10713;51.912;4.494;2023-03-14T09:26:29;10.93;;;2.00;;
21110;SDS011;10713;51.912;4.494;2023-03-14T09:28:55;10.27;;;1.77;;
21110;SDS011;10713;51.912;4.494;2023-03-14T09:31:20;12.50;;;1.85;;
21110;SDS011;10713;51.912;4.494;2023-03-14T09:33:46;13.40;;;2.25;;
21110;SDS011;10713;51.912;4.494;2023-03-14T09:36:11;13.85;;;2.00;;
21110;SDS011;10713;51.912;4.494;2023-03-14T09:38:38;11.48;;;2.25;;
21110;SDS011;10713;51.912;4.494;2023-03-14T09:41:10;14.27;;;2.38;;
21110;SDS011;10713;51.912;4.494;2023-03-14T09:43:40;18.17;;;2.88;;
21110;SDS011;10713;51.912;4.494;2023-03-14T09:46:08;17.25;;;2.28;;
21110;SDS011;10713;51.912;4.494;2023-03-14T09:48:36;12.73;;;2.30;;
21110;SDS011;10713;51.912;4.494;2023-03-14T09:51:05;12.02;;;1.92;;
21110;SDS011;10713;51.912;4.494;2023-03-14T09:53:41;14.13;;;1.77;;
21110;SDS011;10713;51.912;4.494;2023-03-14T09:56:13;12.35;;;1.88;;
21110;SDS011;10713;51.912;4.494;2023-03-14T09:58:42;13.57;;;1.83;;
21110;SDS011;10713;51.912;4.494;2023-03-14T10:01:11;12.75;;;2.50;;
21110;SDS011;10713;51.912;4.494;2023-03-14T10:03:41;15.90;;;2.53;;
21110;SDS011;10713;51.912;4.494;2023-03-14T10:06:12;10.32;;;2.28;;
21110;SDS011;10713;51.912;4.494;2023-03-14T10:08:39;14.40;;;2.53;;
21110;SDS011;10713;51.912;4.494;2023-03-14T10:11:17;13.82;;;2.40;;
21110;SDS011;10713;51.912;4.494;2023-03-14T10:16:31;18.70;;;2.78;;
21110;SDS011;10713;51.912;4.494;2023-03-14T10:19:03;19.20;;;2.88;;
21110;SDS011;10713;51.912;4.494;2023-03-14T10:21:30;15.57;;;3.38;;
21110;SDS011;10713;51.912;4.494;2023-03-14T10:26:39;18.95;;;3.10;;
21110;SDS011;10713;51.912;4.494;2023-03-14T10:29:09;26.95;;;3.17;;
21110;SDS011;10713;51.912;4.494;2023-03-14T10:31:49;17.02;;;2.80;;
21110;SDS011;10713;51.912;4.494;2023-03-14T10:34:20;20.08;;;2.67;;
21110;SDS011;10713;51.912;4.494;2023-03-14T10:36:52;23.92;;;3.28;;
21110;SDS011;10713;51.912;4.494;2023-03-14T10:42:28;22.92;;;3.50;;
21110;SDS011;10713;51.912;4.494;2023-03-14T10:45:06;23.67;;;2.92;;
21110;SDS011;10713;51.912;4.494;2023-03-14T10:47:50;29.42;;;3.75;;
21110;SDS011;10713;51.912;4.494;2023-03-14T10:52:49;21.33;;;2.58;;
21110;SDS011;10713;51.912;4.494;2023-03-14T10:55:18;18.00;;;3.03;;
21110;SDS011;10713;51.912;4.494;2023-03-14T10:57:44;28.58;;;6.65;;
21110;SDS011;10713;51.912;4.494;2023-03-14T11:00:16;46.28;;;11.75;;
21110;SDS011;10713;51.912;4.494;2023-03-14T11:08:25;21.25;;;5.45;;
21110;SDS011;10713;51.912;4.494;2023-03-14T11:11:07;33.42;;;6.63;;
21110;SDS011;10713;51.912;4.494;2023-03-14T11:16:37;24.80;;;5.15;;
21110;SDS011;10713;51.912;4.494;2023-03-14T11:19:20;21.02;;;4.55;;
21110;SDS011;10713;51.912;4.494;2023-03-14T11:21:59;25.30;;;5.57;;
21110;SDS011;10713;51.912;4.494;2023-03-14T11:30:19;25.23;;;4.00;;
21110;SDS011;10713;51.912;4.494;2023-03-14T11:33:00;27.38;;;6.30;;
21110;SDS011;10713;51.912;4.494;2023-03-14T11:35:34;21.20;;;5.32;;
21110;SDS011;10713;51.912;4.494;2023-03-14T11:40:35;29.00;;;5.00;;
21110;SDS011;10713;51.912;4.494;2023-03-14T11:43:10;32.22;;;5.00;;
21110;SDS011;10713;51.912;4.494;2023-03-14T11:45:41;28.33;;;8.13;;
21110;SDS011;10713;51.912;4.494;2023-03-14T11:48:13;22.20;;;4.05;;
21110;SDS011;10713;51.912;4.494;2023-03-14T11:50:46;24.05;;;6.10;;
21110;SDS011;10713;51.912;4.494;2023-03-14T11:56:09;16.58;;;2.83;;
21110;SDS011;10713;51.912;4.494;2023-03-14T11:58:46;25.98;;;5.00;;
21110;SDS011;10713;51.912;4.494;2023-03-14T12:01:19;20.00;;;4.18;;
21110;SDS011;10713;51.912;4.494;2023-03-14T12:09:15;17.10;;;3.88;;
21110;SDS011;10713;51.912;4.494;2023-03-14T12:11:50;27.15;;;6.40;;
21110;SDS011;10713;51.912;4.494;2023-03-14T12:14:36;16.08;;;2.88;;
21110;SDS011;10713;51.912;4.494;2023-03-14T12:19:38;18.75;;;4.15;;
21110;SDS011;10713;51.912;4.494;2023-03-14T12:24:33;19.10;;;3.28;;
21110;SDS011;10713;51.912;4.494;2023-03-14T12:27:03;14.32;;;2.65;;
21110;SDS011;10713;51.912;4.494;2023-03-14T12:29:30;15.02;;;2.60;;
21110;SDS011;10713;51.912;4.494;2023-03-14T12:34:49;19.88;;;3.80;;
21110;SDS011;10713;51.912;4.494;2023-03-14T12:37:35;14.48;;;3.08;;
21110;SDS011;10713;51.912;4.494;2023-03-14T12:40:26;12.50;;;2.38;;
21110;SDS011;10713;51.912;4.494;2023-03-14T12:45:27;14.15;;;2.92;;
21110;SDS011;10713;51.912;4.494;2023-03-14T12:48:10;11.32;;;2.35;;
21110;SDS011;10713;51.912;4.494;2023-03-14T12:50:44;10.80;;;3.28;;
21110;SDS011;10713;51.912;4.494;2023-03-14T12:58:54;10.93;;;2.50;;
21110;SDS011;10713;51.912;4.494;2023-03-14T13:01:29;18.55;;;3.45;;
21110;SDS011;10713;51.912;4.494;2023-03-14T13:03:58;10.38;;;2.38;;
21110;SDS011;10713;51.912;4.494;2023-03-14T13:06:52;12.80;;;2.63;;
21110;SDS011;10713;51.912;4.494;2023-03-14T13:10:15;10.05;;;2.10;;
21110;SDS011;10713;51.912;4.494;2023-03-14T13:12:17;14.07;;;2.28;;
21110;SDS011;10713;51.912;4.494;2023-03-14T13:14:44;9.30;;;1.80;;
21110;SDS011;10713;51.912;4.494;2023-03-14T13:17:12;10.07;;;1.60;;
21110;SDS011;10713;51.912;4.494;2023-03-14T13:19:39;14.00;;;2.28;;
21110;SDS011;10713;51.912;4.494;2023-03-14T13:22:06;13.48;;;2.40;;
21110;SDS011;10713;51.912;4.494;2023-03-14T13:24:42;10.18;;;1.70;;
21110;SDS011;10713;51.912;4.494;2023-03-14T13:27:10;12.13;;;2.25;;
21110;SDS011;10713;51.912;4.494;2023-03-14T13:29:44;9.60;;;2.03;;
21110;SDS011;10713;51.912;4.494;2023-03-14T13:32:16;13.70;;;2.15;;
21110;SDS011;10713;51.912;4.494;2023-03-14T13:34:44;7.65;;;1.60;;
21110;SDS011;10713;51.912;4.494;2023-03-14T13:37:16;12.77;;;2.08;;
21110;SDS011;10713;51.912;4.494;2023-03-14T13:39:48;8.95;;;1.45;;
21110;SDS011;10713;51.912;4.494;2023-03-14T13:42:16;8.65;;;2.00;;
21110;SDS011;10713;51.912;4.494;2023-03-14T13:44:42;11.23;;;1.77;;
21110;SDS011;10713;51.912;4.494;2023-03-14T13:47:11;7.93;;;1.73;;
21110;SDS011;10713;51.912;4.494;2023-03-14T13:49:40;10.65;;;2.20;;
21110;SDS011;10713;51.912;4.494;2023-03-14T13:52:21;12.65;;;2.00;;
21110;SDS011;10713;51.912;4.494;2023-03-14T13:55:03;8.93;;;2.30;;
21110;SDS011;10713;51.912;4.494;2023-03-14T13:57:46;7.38;;;1.90;;
21110;SDS011;10713;51.912;4.494;2023-03-14T14:00:23;11.27;;;1.90;;
21110;SDS011;10713;51.912;4.494;2023-03-14T14:02:52;8.88;;;1.80;;
21110;SDS011;10713;51.912;4.494;2023-03-14T14:05:22;6.25;;;1.77;;
21110;SDS011;10713;51.912;4.494;2023-03-14T14:07:51;10.98;;;1.80;;
21110;SDS011;10713;51.912;4.494;2023-03-14T14:10:17;8.52;;;1.98;;
21110;SDS011;10713;51.912;4.494;2023-03-14T14:12:45;15.40;;;1.98;;
21110;SDS011;10713;51.912;4.494;2023-03-14T14:15:31;8.07;;;1.65;;
21110;SDS011;10713;51.912;4.494;2023-03-14T14:18:03;7.82;;;1.55;;
21110;SDS011;10713;51.912;4.494;2023-03-14T14:20:34;6.60;;;1.88;;
21110;SDS011;10713;51.912;4.494;2023-03-14T14:23:15;10.68;;;2.10;;
21110;SDS011;10713;51.912;4.494;2023-03-14T14:25:50;7.88;;;1.90;;
21110;SDS011;10713;51.912;4.494;2023-03-14T14:33:37;12.80;;;1.80;;
21110;SDS011;10713;51.912;4.494;2023-03-14T14:36:19;10.45;;;1.88;;
21110;SDS011;10713;51.912;4.494;2023-03-14T14:38:53;15.30;;;2.70;;
21110;SDS011;10713;51.912;4.494;2023-03-14T14:41:26;9.98;;;2.00;;
21110;SDS011;10713;51.912;4.494;2023-03-14T14:43:52;8.38;;;1.60;;
21110;SDS011;10713;51.912;4.494;2023-03-14T14:46:18;19.58;;;2.47;;
21110;SDS011;10713;51.912;4.494;2023-03-14T14:48:44;7.75;;;1.85;;
21110;SDS011;10713;51.912;4.494;2023-03-14T14:51:21;8.80;;;1.95;;
21110;SDS011;10713;51.912;4.494;2023-03-14T14:53:49;10.88;;;2.38;;
21110;SDS011;10713;51.912;4.494;2023-03-14T14:56:18;16.38;;;2.03;;
21110;SDS011;10713;51.912;4.494;2023-03-14T14:58:47;11.10;;;2.03;;
21110;SDS011;10713;51.912;4.494;2023-03-14T15:01:14;13.27;;;1.67;;
21110;SDS011;10713;51.912;4.494;2023-03-14T15:03:41;11.80;;;2.17;;
21110;SDS011;10713;51.912;4.494;2023-03-14T15:06:08;8.32;;;2.05;;
21110;SDS011;10713;51.912;4.494;2023-03-14T15:08:37;8.98;;;2.25;;
21110;SDS011;10713;51.912;4.494;2023-03-14T15:11:02;11.35;;;1.58;;
21110;SDS011;10713;51.912;4.494;2023-03-14T15:13:28;7.72;;;1.42;;
21110;SDS011;10713;51.912;4.494;2023-03-14T15:15:53;10.18;;;1.55;;
21110;SDS011;10713;51.912;4.494;2023-03-14T15:18:21;9.27;;;1.83;;
21110;SDS011;10713;51.912;4.494;2023-03-14T15:20:47;9.13;;;1.55;;
21110;SDS011;10713;51.912;4.494;2023-03-14T15:23:14;10.48;;;1.77;;
21110;SDS011;10713;51.912;4.494;2023-03-14T15:25:41;7.97;;;1.50;;
21110;SDS011;10713;51.912;4.494;2023-03-14T15:28:20;5.95;;;1.80;;
21110;SDS011;10713;51.912;4.494;2023-03-14T15:30:48;7.10;;;1.45;;
21110;SDS011;10713;51.912;4.494;2023-03-14T15:33:34;8.48;;;1.40;;
21110;SDS011;10713;51.912;4.494;2023-03-14T15:35:59;11.95;;;1.83;;
21110;SDS011;10713;51.912;4.494;2023-03-14T15:38:25;9.25;;;1.55;;
21110;SDS011;10713;51.912;4.494;2023-03-14T15:40:51;11.43;;;1.35;;
21110;SDS011;10713;51.912;4.494;2023-03-14T15:43:17;7.00;;;1.63;;
21110;SDS011;10713;51.912;4.494;2023-03-14T15:45:43;9.93;;;1.85;;
21110;SDS011;10713;51.912;4.494;2023-03-14T15:48:14;8.13;;;1.23;;
21110;SDS011;10713;51.912;4.494;2023-03-14T15:50:41;7.95;;;1.88;;